Dodgeville, Michigan
Current Conditions -  °F | °C
As of 6:53 PM on Tuesday 25 Nov 2014 (Local Time) from KCMX Reporting Station
Broken Clouds Broken Clouds  
Wind Chill: 17°   Ceiling: 2500
Heat Index: 17°   Visibility: 10mi
Dew Point: 10°   Wind: 0mph
Humidity: 74%   Direction: NA
Pressure: 29.99"   Gusts: NA
Location:  47.09°N, 88.58°W
Report Text: KCMX 252353Z AUTO 00000KT 10SM BKN025 M08/M12 A2999 RMK AO2 SLP176 60000 T10831122 11067 21083 51012 $
Loading
Personal Weather Stations






























Interactive Weather Map New forecast layout! Learn more

10-Day Weather Forecast

Advertisements
Track Severe Weather on mobile